sensor_id;sensor_type;location;lat;lon;timestamp;P1;durP1;ratioP1;P2;durP2;ratioP2
53925;SDS011;39836;52.754;6.866;2023-07-24T00:41:10;15.95;;;12.02;;
53925;SDS011;39836;52.754;6.866;2023-07-24T00:43:39;15.10;;;11.60;;
53925;SDS011;39836;52.754;6.866;2023-07-24T00:46:09;18.23;;;12.65;;
53925;SDS011;39836;52.754;6.866;2023-07-24T00:49:02;16.55;;;11.88;;
53925;SDS011;39836;52.754;6.866;2023-07-24T00:51:37;16.17;;;12.70;;
53925;SDS011;39836;52.754;6.866;2023-07-24T00:54:03;14.82;;;12.82;;
53925;SDS011;39836;52.754;6.866;2023-07-24T00:56:31;14.88;;;12.63;;
53925;SDS011;39836;52.754;6.866;2023-07-24T00:58:57;15.82;;;11.57;;
53925;SDS011;39836;52.754;6.866;2023-07-24T01:01:24;14.82;;;11.63;;
53925;SDS011;39836;52.754;6.866;2023-07-24T01:03:50;17.15;;;13.13;;
53925;SDS011;39836;52.754;6.866;2023-07-24T01:06:17;15.63;;;11.85;;
53925;SDS011;39836;52.754;6.866;2023-07-24T01:08:42;12.85;;;10.95;;
53925;SDS011;39836;52.754;6.866;2023-07-24T01:16:46;14.32;;;9.38;;
53925;SDS011;39836;52.754;6.866;2023-07-24T07:24:59;18.50;;;14.48;;
53925;SDS011;39836;52.754;6.866;2023-07-24T09:41:26;13.23;;;8.45;;
53925;SDS011;39836;52.754;6.866;2023-07-24T09:44:18;16.90;;;9.95;;
53925;SDS011;39836;52.754;6.866;2023-07-24T09:46:44;11.20;;;7.72;;
53925;SDS011;39836;52.754;6.866;2023-07-24T09:49:10;11.98;;;7.03;;
53925;SDS011;39836;52.754;6.866;2023-07-24T09:51:40;14.05;;;9.05;;
53925;SDS011;39836;52.754;6.866;2023-07-24T09:54:17;11.43;;;6.93;;
53925;SDS011;39836;52.754;6.866;2023-07-24T09:56:49;11.85;;;7.57;;
53925;SDS011;39836;52.754;6.866;2023-07-24T09:59:16;11.63;;;7.57;;
53925;SDS011;39836;52.754;6.866;2023-07-24T10:01:42;12.98;;;8.10;;
53925;SDS011;39836;52.754;6.866;2023-07-24T10:04:09;16.65;;;8.88;;
53925;SDS011;39836;52.754;6.866;2023-07-24T10:06:35;12.18;;;7.55;;
53925;SDS011;39836;52.754;6.866;2023-07-24T10:09:01;9.98;;;6.90;;
53925;SDS011;39836;52.754;6.866;2023-07-24T10:11:27;12.45;;;6.95;;
53925;SDS011;39836;52.754;6.866;2023-07-24T10:13:54;13.02;;;6.00;;
53925;SDS011;39836;52.754;6.866;2023-07-24T10:16:21;9.98;;;6.65;;
53925;SDS011;39836;52.754;6.866;2023-07-24T10:18:47;9.27;;;6.55;;
53925;SDS011;39836;52.754;6.866;2023-07-24T10:21:13;12.48;;;6.85;;
53925;SDS011;39836;52.754;6.866;2023-07-24T10:23:43;9.10;;;5.97;;
53925;SDS011;39836;52.754;6.866;2023-07-24T10:26:11;12.43;;;7.13;;
53925;SDS011;39836;52.754;6.866;2023-07-24T10:28:38;13.07;;;6.45;;
53925;SDS011;39836;52.754;6.866;2023-07-24T10:31:23;13.00;;;7.43;;
53925;SDS011;39836;52.754;6.866;2023-07-24T10:33:54;10.48;;;6.30;;
53925;SDS011;39836;52.754;6.866;2023-07-24T10:36:22;9.63;;;6.57;;
53925;SDS011;39836;52.754;6.866;2023-07-24T10:38:53;14.40;;;6.95;;
53925;SDS011;39836;52.754;6.866;2023-07-24T10:41:20;10.85;;;6.32;;
53925;SDS011;39836;52.754;6.866;2023-07-24T10:43:46;14.30;;;6.93;;
53925;SDS011;39836;52.754;6.866;2023-07-24T10:46:14;13.55;;;7.22;;
53925;SDS011;39836;52.754;6.866;2023-07-24T10:48:44;13.50;;;6.70;;
53925;SDS011;39836;52.754;6.866;2023-07-24T10:51:14;11.95;;;7.75;;
53925;SDS011;39836;52.754;6.866;2023-07-24T10:53:47;12.57;;;7.10;;
53925;SDS011;39836;52.754;6.866;2023-07-24T10:56:14;10.50;;;6.05;;
53925;SDS011;39836;52.754;6.866;2023-07-24T10:58:41;12.02;;;6.38;;
53925;SDS011;39836;52.754;6.866;2023-07-24T11:01:07;16.67;;;7.30;;
53925;SDS011;39836;52.754;6.866;2023-07-24T11:03:36;10.05;;;6.32;;
53925;SDS011;39836;52.754;6.866;2023-07-24T11:06:10;11.35;;;5.78;;
53925;SDS011;39836;52.754;6.866;2023-07-24T11:08:41;10.00;;;5.05;;
53925;SDS011;39836;52.754;6.866;2023-07-24T11:11:07;9.82;;;5.82;;
53925;SDS011;39836;52.754;6.866;2023-07-24T11:13:33;8.52;;;5.53;;
53925;SDS011;39836;52.754;6.866;2023-07-24T11:16:06;9.23;;;4.90;;
53925;SDS011;39836;52.754;6.866;2023-07-24T11:18:32;11.32;;;5.45;;
53925;SDS011;39836;52.754;6.866;2023-07-24T11:20:58;13.07;;;5.55;;
53925;SDS011;39836;52.754;6.866;2023-07-24T11:23:24;11.10;;;4.88;;
53925;SDS011;39836;52.754;6.866;2023-07-24T11:25:50;9.40;;;5.45;;
53925;SDS011;39836;52.754;6.866;2023-07-24T11:28:19;14.43;;;5.90;;
53925;SDS011;39836;52.754;6.866;2023-07-24T11:30:45;9.30;;;5.35;;
53925;SDS011;39836;52.754;6.866;2023-07-24T11:33:11;8.88;;;5.20;;
53925;SDS011;39836;52.754;6.866;2023-07-24T11:35:39;11.13;;;5.68;;
53925;SDS011;39836;52.754;6.866;2023-07-24T11:38:06;10.38;;;5.93;;
53925;SDS011;39836;52.754;6.866;2023-07-24T11:40:40;11.38;;;5.93;;
53925;SDS011;39836;52.754;6.866;2023-07-24T11:43:19;7.85;;;4.75;;
53925;SDS011;39836;52.754;6.866;2023-07-24T11:45:46;12.52;;;4.82;;
53925;SDS011;39836;52.754;6.866;2023-07-24T11:48:23;12.00;;;6.05;;
53925;SDS011;39836;52.754;6.866;2023-07-24T11:50:50;8.82;;;5.57;;
53925;SDS011;39836;52.754;6.866;2023-07-24T11:53:18;8.27;;;5.60;;
53925;SDS011;39836;52.754;6.866;2023-07-24T11:55:49;13.15;;;6.25;;
53925;SDS011;39836;52.754;6.866;2023-07-24T11:58:16;12.70;;;6.43;;
53925;SDS011;39836;52.754;6.866;2023-07-24T12:00:42;8.40;;;5.28;;
53925;SDS011;39836;52.754;6.866;2023-07-24T12:03:08;8.85;;;5.78;;
53925;SDS011;39836;52.754;6.866;2023-07-24T12:05:40;8.95;;;5.00;;
53925;SDS011;39836;52.754;6.866;2023-07-24T12:08:08;8.88;;;4.88;;
53925;SDS011;39836;52.754;6.866;2023-07-24T12:10:37;10.20;;;5.32;;
53925;SDS011;39836;52.754;6.866;2023-07-24T12:13:04;9.68;;;4.70;;
53925;SDS011;39836;52.754;6.866;2023-07-24T12:15:30;12.48;;;4.93;;
53925;SDS011;39836;52.754;6.866;2023-07-24T12:17:56;10.30;;;5.38;;
53925;SDS011;39836;52.754;6.866;2023-07-24T12:20:22;11.40;;;5.65;;
53925;SDS011;39836;52.754;6.866;2023-07-24T12:22:48;10.38;;;5.95;;
53925;SDS011;39836;52.754;6.866;2023-07-24T12:25:14;9.98;;;5.47;;
53925;SDS011;39836;52.754;6.866;2023-07-24T12:27:43;10.80;;;5.65;;
53925;SDS011;39836;52.754;6.866;2023-07-24T12:30:08;10.32;;;5.65;;
53925;SDS011;39836;52.754;6.866;2023-07-24T12:32:34;10.02;;;5.95;;
53925;SDS011;39836;52.754;6.866;2023-07-24T12:35:00;9.02;;;5.22;;
53925;SDS011;39836;52.754;6.866;2023-07-24T12:37:26;10.65;;;5.93;;
53925;SDS011;39836;52.754;6.866;2023-07-24T12:39:52;10.50;;;5.85;;
53925;SDS011;39836;52.754;6.866;2023-07-24T12:42:17;11.60;;;5.75;;
53925;SDS011;39836;52.754;6.866;2023-07-24T12:44:43;12.85;;;5.80;;
53925;SDS011;39836;52.754;6.866;2023-07-24T12:47:09;13.00;;;5.97;;
53925;SDS011;39836;52.754;6.866;2023-07-24T12:49:35;11.25;;;6.38;;
53925;SDS011;39836;52.754;6.866;2023-07-24T12:52:02;14.52;;;6.10;;
53925;SDS011;39836;52.754;6.866;2023-07-24T12:54:28;8.82;;;6.30;;
53925;SDS011;39836;52.754;6.866;2023-07-24T12:56:53;12.05;;;6.28;;
53925;SDS011;39836;52.754;6.866;2023-07-24T12:59:19;10.65;;;6.72;;
53925;SDS011;39836;52.754;6.866;2023-07-24T13:01:45;11.32;;;6.07;;
53925;SDS011;39836;52.754;6.866;2023-07-24T13:04:11;11.85;;;6.72;;
53925;SDS011;39836;52.754;6.866;2023-07-24T13:06:37;13.68;;;6.35;;
53925;SDS011;39836;52.754;6.866;2023-07-24T13:09:03;12.18;;;7.15;;
53925;SDS011;39836;52.754;6.866;2023-07-24T13:11:30;13.70;;;7.00;;
53925;SDS011;39836;52.754;6.866;2023-07-24T13:13:56;11.70;;;6.63;;
53925;SDS011;39836;52.754;6.866;2023-07-24T13:16:22;12.60;;;6.55;;
53925;SDS011;39836;52.754;6.866;2023-07-24T13:18:48;9.48;;;5.95;;
53925;SDS011;39836;52.754;6.866;2023-07-24T13:21:14;12.50;;;6.30;;
53925;SDS011;39836;52.754;6.866;2023-07-24T13:23:40;10.27;;;6.40;;
53925;SDS011;39836;52.754;6.866;2023-07-24T13:26:06;9.80;;;6.05;;
53925;SDS011;39836;52.754;6.866;2023-07-24T13:28:39;13.35;;;6.28;;
53925;SDS011;39836;52.754;6.866;2023-07-24T13:31:12;10.45;;;5.47;;
53925;SDS011;39836;52.754;6.866;2023-07-24T13:33:39;10.02;;;5.65;;
53925;SDS011;39836;52.754;6.866;2023-07-24T13:36:05;9.43;;;5.45;;
53925;SDS011;39836;52.754;6.866;2023-07-24T13:38:30;11.82;;;5.88;;
53925;SDS011;39836;52.754;6.866;2023-07-24T13:40:57;8.55;;;5.05;;
53925;SDS011;39836;52.754;6.866;2023-07-24T13:43:23;8.52;;;5.32;;
53925;SDS011;39836;52.754;6.866;2023-07-24T13:45:49;11.30;;;5.13;;
53925;SDS011;39836;52.754;6.866;2023-07-24T13:48:14;10.95;;;5.10;;
53925;SDS011;39836;52.754;6.866;2023-07-24T13:50:40;11.00;;;5.45;;
53925;SDS011;39836;52.754;6.866;2023-07-24T13:53:06;11.38;;;6.35;;
53925;SDS011;39836;52.754;6.866;2023-07-24T13:55:31;15.77;;;5.70;;
53925;SDS011;39836;52.754;6.866;2023-07-24T13:57:57;10.60;;;3.63;;
53925;SDS011;39836;52.754;6.866;2023-07-24T14:00:23;6.40;;;3.40;;
53925;SDS011;39836;52.754;6.866;2023-07-24T14:02:48;8.23;;;4.20;;
53925;SDS011;39836;52.754;6.866;2023-07-24T14:05:15;8.02;;;4.38;;
53925;SDS011;39836;52.754;6.866;2023-07-24T14:07:41;22.85;;;5.88;;
53925;SDS011;39836;52.754;6.866;2023-07-24T14:10:07;21.33;;;7.28;;
53925;SDS011;39836;52.754;6.866;2023-07-24T14:12:33;13.00;;;6.63;;
53925;SDS011;39836;52.754;6.866;2023-07-24T14:14:59;45.90;;;9.65;;
53925;SDS011;39836;52.754;6.866;2023-07-24T14:17:25;15.27;;;9.75;;
53925;SDS011;39836;52.754;6.866;2023-07-24T14:19:50;18.95;;;10.52;;
53925;SDS011;39836;52.754;6.866;2023-07-24T14:22:16;15.27;;;11.00;;
53925;SDS011;39836;52.754;6.866;2023-07-24T14:24:41;19.48;;;13.00;;
53925;SDS011;39836;52.754;6.866;2023-07-24T14:27:07;21.67;;;12.82;;
53925;SDS011;39836;52.754;6.866;2023-07-24T14:29:33;23.38;;;13.55;;
53925;SDS011;39836;52.754;6.866;2023-07-24T14:31:59;26.83;;;16.88;;
53925;SDS011;39836;52.754;6.866;2023-07-24T14:34:24;20.55;;;15.05;;
53925;SDS011;39836;52.754;6.866;2023-07-24T14:36:50;28.38;;;19.05;;
53925;SDS011;39836;52.754;6.866;2023-07-24T14:39:17;21.30;;;15.18;;
53925;SDS011;39836;52.754;6.866;2023-07-24T14:41:43;20.13;;;14.32;;
53925;SDS011;39836;52.754;6.866;2023-07-24T14:44:09;21.35;;;14.52;;
53925;SDS011;39836;52.754;6.866;2023-07-24T14:46:35;19.13;;;14.20;;
53925;SDS011;39836;52.754;6.866;2023-07-24T14:49:01;25.73;;;14.75;;
53925;SDS011;39836;52.754;6.866;2023-07-24T14:51:27;22.23;;;15.10;;
53925;SDS011;39836;52.754;6.866;2023-07-24T14:53:52;22.40;;;14.32;;
53925;SDS011;39836;52.754;6.866;2023-07-24T14:56:19;20.45;;;13.82;;
53925;SDS011;39836;52.754;6.866;2023-07-24T14:58:45;20.15;;;14.88;;
53925;SDS011;39836;52.754;6.866;2023-07-24T15:01:11;26.48;;;15.80;;
53925;SDS011;39836;52.754;6.866;2023-07-24T15:03:37;23.85;;;16.33;;
53925;SDS011;39836;52.754;6.866;2023-07-24T15:06:03;24.55;;;16.10;;
53925;SDS011;39836;52.754;6.866;2023-07-24T15:08:31;17.27;;;13.18;;
53925;SDS011;39836;52.754;6.866;2023-07-24T15:10:57;20.48;;;14.25;;
53925;SDS011;39836;52.754;6.866;2023-07-24T15:13:23;19.73;;;13.32;;
53925;SDS011;39836;52.754;6.866;2023-07-24T15:15:49;19.90;;;13.32;;
53925;SDS011;39836;52.754;6.866;2023-07-24T15:18:15;16.83;;;12.35;;
53925;SDS011;39836;52.754;6.866;2023-07-24T15:20:40;15.88;;;10.18;;
53925;SDS011;39836;52.754;6.866;2023-07-24T15:23:06;11.55;;;9.32;;
53925;SDS011;39836;52.754;6.866;2023-07-24T15:25:32;10.32;;;4.85;;
53925;SDS011;39836;52.754;6.866;2023-07-24T15:27:57;9.10;;;5.68;;
53925;SDS011;39836;52.754;6.866;2023-07-24T15:30:24;9.65;;;4.80;;
53925;SDS011;39836;52.754;6.866;2023-07-24T15:32:50;10.50;;;4.75;;
53925;SDS011;39836;52.754;6.866;2023-07-24T15:35:15;9.60;;;5.20;;
53925;SDS011;39836;52.754;6.866;2023-07-24T15:37:41;11.43;;;4.90;;
53925;SDS011;39836;52.754;6.866;2023-07-24T15:40:08;4.95;;;3.40;;
53925;SDS011;39836;52.754;6.866;2023-07-24T15:42:34;8.93;;;3.83;;
53925;SDS011;39836;52.754;6.866;2023-07-24T15:45:00;10.10;;;3.78;;
53925;SDS011;39836;52.754;6.866;2023-07-24T15:47:26;6.47;;;3.22;;
53925;SDS011;39836;52.754;6.866;2023-07-24T15:49:52;7.15;;;3.28;;
53925;SDS011;39836;52.754;6.866;2023-07-24T15:52:17;8.40;;;3.60;;
53925;SDS011;39836;52.754;6.866;2023-07-24T15:54:43;8.63;;;4.00;;
53925;SDS011;39836;52.754;6.866;2023-07-24T15:57:09;8.75;;;3.85;;
53925;SDS011;39836;52.754;6.866;2023-07-24T15:59:36;6.90;;;2.20;;
53925;SDS011;39836;52.754;6.866;2023-07-24T16:02:03;11.35;;;3.38;;
53925;SDS011;39836;52.754;6.866;2023-07-24T16:04:29;13.02;;;2.80;;
53925;SDS011;39836;52.754;6.866;2023-07-24T16:06:54;7.03;;;2.72;;
53925;SDS011;39836;52.754;6.866;2023-07-24T16:09:20;11.60;;;3.65;;
53925;SDS011;39836;52.754;6.866;2023-07-24T16:11:47;13.38;;;4.45;;
53925;SDS011;39836;52.754;6.866;2023-07-24T16:14:13;11.35;;;5.72;;
53925;SDS011;39836;52.754;6.866;2023-07-24T16:16:39;10.95;;;4.20;;
53925;SDS011;39836;52.754;6.866;2023-07-24T16:19:15;11.45;;;3.33;;
53925;SDS011;39836;52.754;6.866;2023-07-24T16:21:45;10.93;;;3.00;;
53925;SDS011;39836;52.754;6.866;2023-07-24T16:24:13;9.50;;;2.40;;
53925;SDS011;39836;52.754;6.866;2023-07-24T16:26:40;11.23;;;2.17;;
53925;SDS011;39836;52.754;6.866;2023-07-24T16:29:07;11.27;;;2.60;;
53925;SDS011;39836;52.754;6.866;2023-07-24T16:31:32;7.20;;;2.58;;
53925;SDS011;39836;52.754;6.866;2023-07-24T16:33:58;10.98;;;2.17;;
53925;SDS011;39836;52.754;6.866;2023-07-24T16:36:24;8.65;;;2.50;;
53925;SDS011;39836;52.754;6.866;2023-07-24T16:38:49;7.65;;;2.88;;
53925;SDS011;39836;52.754;6.866;2023-07-24T16:41:16;7.50;;;2.22;;
53925;SDS011;39836;52.754;6.866;2023-07-24T16:43:42;9.93;;;3.65;;
53925;SDS011;39836;52.754;6.866;2023-07-24T16:46:09;5.38;;;2.20;;
53925;SDS011;39836;52.754;6.866;2023-07-24T16:48:36;8.73;;;2.30;;
53925;SDS011;39836;52.754;6.866;2023-07-24T16:51:02;7.22;;;2.03;;
53925;SDS011;39836;52.754;6.866;2023-07-24T16:53:28;8.52;;;2.20;;
53925;SDS011;39836;52.754;6.866;2023-07-24T16:55:54;9.15;;;2.10;;
53925;SDS011;39836;52.754;6.866;2023-07-24T16:58:19;6.80;;;1.75;;
53925;SDS011;39836;52.754;6.866;2023-07-24T17:00:45;6.60;;;1.92;;
53925;SDS011;39836;52.754;6.866;2023-07-24T17:03:11;5.50;;;2.10;;
53925;SDS011;39836;52.754;6.866;2023-07-24T17:05:36;6.07;;;1.70;;
53925;SDS011;39836;52.754;6.866;2023-07-24T17:08:02;4.93;;;1.77;;
53925;SDS011;39836;52.754;6.866;2023-07-24T17:10:29;5.50;;;2.03;;
53925;SDS011;39836;52.754;6.866;2023-07-24T17:13:05;7.47;;;1.88;;
53925;SDS011;39836;52.754;6.866;2023-07-24T17:15:31;6.93;;;2.45;;
53925;SDS011;39836;52.754;6.866;2023-07-24T17:17:59;9.43;;;2.78;;
53925;SDS011;39836;52.754;6.866;2023-07-24T17:20:25;8.65;;;2.75;;
53925;SDS011;39836;52.754;6.866;2023-07-24T17:22:51;11.95;;;3.05;;
53925;SDS011;39836;52.754;6.866;2023-07-24T17:25:18;6.78;;;1.90;;
53925;SDS011;39836;52.754;6.866;2023-07-24T18:08:39;8.48;;;1.85;;
53925;SDS011;39836;52.754;6.866;2023-07-24T19:26:34;7.20;;;2.20;;
53925;SDS011;39836;52.754;6.866;2023-07-24T20:37:48;10.07;;;2.75;;
53925;SDS011;39836;52.754;6.866;2023-07-24T21:05:19;10.30;;;3.22;;
53925;SDS011;39836;52.754;6.866;2023-07-24T21:16:20;9.80;;;3.38;;
53925;SDS011;39836;52.754;6.866;2023-07-24T21:18:49;13.60;;;3.72;;
53925;SDS011;39836;52.754;6.866;2023-07-24T21:21:15;8.57;;;3.40;;
53925;SDS011;39836;52.754;6.866;2023-07-24T21:23:40;11.93;;;3.15;;
53925;SDS011;39836;52.754;6.866;2023-07-24T21:26:17;10.77;;;3.85;;
53925;SDS011;39836;52.754;6.866;2023-07-24T21:28:43;13.25;;;3.97;;
53925;SDS011;39836;52.754;6.866;2023-07-24T21:31:09;5.88;;;2.90;;
53925;SDS011;39836;52.754;6.866;2023-07-24T21:33:36;12.55;;;3.55;;
53925;SDS011;39836;52.754;6.866;2023-07-24T21:36:05;7.55;;;3.15;;
53925;SDS011;39836;52.754;6.866;2023-07-24T21:38:31;10.95;;;3.90;;
53925;SDS011;39836;52.754;6.866;2023-07-24T21:40:57;7.78;;;3.65;;
53925;SDS011;39836;52.754;6.866;2023-07-24T21:43:24;11.07;;;3.47;;
53925;SDS011;39836;52.754;6.866;2023-07-24T21:45:54;10.65;;;3.63;;
53925;SDS011;39836;52.754;6.866;2023-07-24T21:48:20;6.95;;;4.05;;
